sensor_id;sensor_type;location;lat;lon;timestamp;temperature;humidity
17529;DHT22;8882;53.192;8.184;2023-07-09T07:00:45;24.30;1.00
17529;DHT22;8882;53.192;8.184;2023-07-09T07:03:11;24.40;1.00
17529;DHT22;8882;53.192;8.184;2023-07-09T07:05:37;24.40;1.00
17529;DHT22;8882;53.192;8.184;2023-07-09T07:08:03;24.50;1.00
17529;DHT22;8882;53.192;8.184;2023-07-09T07:10:29;24.50;1.00
17529;DHT22;8882;53.192;8.184;2023-07-09T07:12:55;24.60;1.00
17529;DHT22;8882;53.192;8.184;2023-07-09T07:15:21;24.70;1.00
17529;DHT22;8882;53.192;8.184;2023-07-09T07:17:48;24.80;1.00
17529;DHT22;8882;53.192;8.184;2023-07-09T07:20:15;25.00;1.00
17529;DHT22;8882;53.192;8.184;2023-07-09T07:22:41;25.10;1.00
17529;DHT22;8882;53.192;8.184;2023-07-09T07:25:07;25.20;1.00
17529;DHT22;8882;53.192;8.184;2023-07-09T07:27:33;25.30;1.00
17529;DHT22;8882;53.192;8.184;2023-07-09T07:29:59;25.60;1.00
17529;DHT22;8882;53.192;8.184;2023-07-09T07:32:24;25.70;1.00
17529;DHT22;8882;53.192;8.184;2023-07-09T07:34:50;25.80;1.00
17529;DHT22;8882;53.192;8.184;2023-07-09T07:37:18;25.90;1.00
17529;DHT22;8882;53.192;8.184;2023-07-09T07:39:46;26.00;1.00
17529;DHT22;8882;53.192;8.184;2023-07-09T07:42:12;26.20;1.00
17529;DHT22;8882;53.192;8.184;2023-07-09T07:44:37;26.40;1.00
17529;DHT22;8882;53.192;8.184;2023-07-09T07:47:04;26.50;1.00
17529;DHT22;8882;53.192;8.184;2023-07-09T07:49:29;26.60;1.00
17529;DHT22;8882;53.192;8.184;2023-07-09T07:51:55;26.60;1.00
17529;DHT22;8882;53.192;8.184;2023-07-09T07:54:21;26.60;1.00
17529;DHT22;8882;53.192;8.184;2023-07-09T07:56:46;26.70;1.00
17529;DHT22;8882;53.192;8.184;2023-07-09T07:59:12;26.80;1.00
17529;DHT22;8882;53.192;8.184;2023-07-09T08:01:37;26.80;99.90
17529;DHT22;8882;53.192;8.184;2023-07-09T08:04:03;26.90;1.00
17529;DHT22;8882;53.192;8.184;2023-07-09T08:06:29;27.00;99.90
17529;DHT22;8882;53.192;8.184;2023-07-09T08:08:57;27.00;26.10
17529;DHT22;8882;53.192;8.184;2023-07-09T08:11:23;27.00;1.00
17529;DHT22;8882;53.192;8.184;2023-07-09T08:13:48;27.00;1.00
17529;DHT22;8882;53.192;8.184;2023-07-09T08:16:14;27.00;1.00
17529;DHT22;8882;53.192;8.184;2023-07-09T08:18:40;27.10;1.00
17529;DHT22;8882;53.192;8.184;2023-07-09T08:21:05;27.20;1.00
17529;DHT22;8882;53.192;8.184;2023-07-09T08:23:31;27.20;1.00
17529;DHT22;8882;53.192;8.184;2023-07-09T08:25:58;27.20;1.00
17529;DHT22;8882;53.192;8.184;2023-07-09T08:28:25;27.30;1.00
17529;DHT22;8882;53.192;8.184;2023-07-09T08:30:54;27.40;1.00
17529;DHT22;8882;53.192;8.184;2023-07-09T08:33:20;27.30;1.00
17529;DHT22;8882;53.192;8.184;2023-07-09T08:35:48;27.50;1.00
17529;DHT22;8882;53.192;8.184;2023-07-09T08:38:14;27.50;1.00
17529;DHT22;8882;53.192;8.184;2023-07-09T08:40:40;27.80;1.00
17529;DHT22;8882;53.192;8.184;2023-07-09T08:43:32;27.80;61.50
17529;DHT22;8882;53.192;8.184;2023-07-09T08:46:19;27.90;99.90
17529;DHT22;8882;53.192;8.184;2023-07-09T08:48:47;27.90;99.90
17529;DHT22;8882;53.192;8.184;2023-07-09T08:53:56;28.10;99.90
17529;DHT22;8882;53.192;8.184;2023-07-09T08:56:22;28.20;99.90
17529;DHT22;8882;53.192;8.184;2023-07-09T08:58:50;28.40;99.90
17529;DHT22;8882;53.192;8.184;2023-07-09T09:01:23;28.40;99.90
17529;DHT22;8882;53.192;8.184;2023-07-09T09:03:59;28.40;99.90
17529;DHT22;8882;53.192;8.184;2023-07-09T09:06:28;28.50;99.90
17529;DHT22;8882;53.192;8.184;2023-07-09T09:09:27;28.40;99.90
17529;DHT22;8882;53.192;8.184;2023-07-09T09:12:03;28.40;99.90
17529;DHT22;8882;53.192;8.184;2023-07-09T09:14:35;28.40;99.90
17529;DHT22;8882;53.192;8.184;2023-07-09T09:17:02;28.40;99.90
17529;DHT22;8882;53.192;8.184;2023-07-09T09:19:33;28.50;99.90
17529;DHT22;8882;53.192;8.184;2023-07-09T09:22:05;28.50;99.90
17529;DHT22;8882;53.192;8.184;2023-07-09T09:24:40;28.60;99.90
17529;DHT22;8882;53.192;8.184;2023-07-09T09:27:09;28.80;99.90
17529;DHT22;8882;53.192;8.184;2023-07-09T09:29:34;28.90;99.90
17529;DHT22;8882;53.192;8.184;2023-07-09T09:32:16;28.90;99.90
17529;DHT22;8882;53.192;8.184;2023-07-09T09:34:43;29.10;99.90
17529;DHT22;8882;53.192;8.184;2023-07-09T09:37:12;29.20;99.90
17529;DHT22;8882;53.192;8.184;2023-07-09T09:39:38;29.40;99.90
17529;DHT22;8882;53.192;8.184;2023-07-09T09:42:10;29.40;99.90
17529;DHT22;8882;53.192;8.184;2023-07-09T09:44:43;29.50;99.90
17529;DHT22;8882;53.192;8.184;2023-07-09T09:47:10;29.60;99.90
17529;DHT22;8882;53.192;8.184;2023-07-09T09:49:39;29.60;99.90
17529;DHT22;8882;53.192;8.184;2023-07-09T09:52:14;29.70;99.90
17529;DHT22;8882;53.192;8.184;2023-07-09T09:54:43;29.70;99.90
17529;DHT22;8882;53.192;8.184;2023-07-09T09:57:16;29.60;99.90
17529;DHT22;8882;53.192;8.184;2023-07-09T09:59:42;29.70;99.90
17529;DHT22;8882;53.192;8.184;2023-07-09T10:02:20;29.80;99.90
17529;DHT22;8882;53.192;8.184;2023-07-09T10:04:46;29.80;99.90
17529;DHT22;8882;53.192;8.184;2023-07-09T10:07:22;29.90;99.90
17529;DHT22;8882;53.192;8.184;2023-07-09T10:09:53;29.90;99.90
17529;DHT22;8882;53.192;8.184;2023-07-09T10:12:32;30.00;99.90
17529;DHT22;8882;53.192;8.184;2023-07-09T10:18:03;30.20;99.90
17529;DHT22;8882;53.192;8.184;2023-07-09T10:20:45;30.30;99.90
17529;DHT22;8882;53.192;8.184;2023-07-09T10:25:57;30.30;99.90
17529;DHT22;8882;53.192;8.184;2023-07-09T10:28:43;30.20;99.90
17529;DHT22;8882;53.192;8.184;2023-07-09T10:31:20;30.20;99.90
17529;DHT22;8882;53.192;8.184;2023-07-09T10:33:55;30.10;99.90
17529;DHT22;8882;53.192;8.184;2023-07-09T10:39:36;30.30;99.90
17529;DHT22;8882;53.192;8.184;2023-07-09T10:42:03;30.40;99.90
17529;DHT22;8882;53.192;8.184;2023-07-09T10:44:38;30.60;99.90
17529;DHT22;8882;53.192;8.184;2023-07-09T10:47:13;30.60;99.90
17529;DHT22;8882;53.192;8.184;2023-07-09T10:49:42;30.70;99.90
17529;DHT22;8882;53.192;8.184;2023-07-09T10:52:21;30.90;99.90
17529;DHT22;8882;53.192;8.184;2023-07-09T11:10:04;31.40;99.90
17529;DHT22;8882;53.192;8.184;2023-07-09T11:12:37;31.30;99.90
17529;DHT22;8882;53.192;8.184;2023-07-09T11:15:10;31.30;99.90
17529;DHT22;8882;53.192;8.184;2023-07-09T11:17:40;31.30;99.90
17529;DHT22;8882;53.192;8.184;2023-07-09T11:20:18;31.20;99.90
17529;DHT22;8882;53.192;8.184;2023-07-09T11:22:52;31.40;99.90
17529;DHT22;8882;53.192;8.184;2023-07-09T11:25:31;31.50;99.90
17529;DHT22;8882;53.192;8.184;2023-07-09T11:28:06;31.50;99.90
17529;DHT22;8882;53.192;8.184;2023-07-09T11:30:33;31.60;99.90
17529;DHT22;8882;53.192;8.184;2023-07-09T11:33:44;31.50;99.90
17529;DHT22;8882;53.192;8.184;2023-07-09T11:36:22;31.50;99.90
17529;DHT22;8882;53.192;8.184;2023-07-09T11:38:48;31.50;99.90
17529;DHT22;8882;53.192;8.184;2023-07-09T11:41:43;31.50;99.90
17529;DHT22;8882;53.192;8.184;2023-07-09T11:49:52;31.70;99.90
17529;DHT22;8882;53.192;8.184;2023-07-09T11:52:34;31.80;99.90
17529;DHT22;8882;53.192;8.184;2023-07-09T11:55:28;31.70;99.90
17529;DHT22;8882;53.192;8.184;2023-07-09T11:58:02;31.70;99.90
17529;DHT22;8882;53.192;8.184;2023-07-09T12:00:30;31.70;99.90
17529;DHT22;8882;53.192;8.184;2023-07-09T12:03:00;31.80;99.90
17529;DHT22;8882;53.192;8.184;2023-07-09T12:05:27;31.90;99.90
17529;DHT22;8882;53.192;8.184;2023-07-09T12:07:54;31.70;99.90
17529;DHT22;8882;53.192;8.184;2023-07-09T12:10:28;31.60;99.90
17529;DHT22;8882;53.192;8.184;2023-07-09T12:12:55;31.70;99.90
17529;DHT22;8882;53.192;8.184;2023-07-09T12:15:27;31.90;99.90
17529;DHT22;8882;53.192;8.184;2023-07-09T12:18:01;32.00;99.90
17529;DHT22;8882;53.192;8.184;2023-07-09T12:20:34;32.20;99.90
17529;DHT22;8882;53.192;8.184;2023-07-09T12:23:09;32.20;99.90
17529;DHT22;8882;53.192;8.184;2023-07-09T12:25:34;32.20;99.90
17529;DHT22;8882;53.192;8.184;2023-07-09T12:28:00;32.30;99.90
17529;DHT22;8882;53.192;8.184;2023-07-09T12:30:27;32.30;99.90
17529;DHT22;8882;53.192;8.184;2023-07-09T12:32:52;32.40;99.90
17529;DHT22;8882;53.192;8.184;2023-07-09T12:35:19;32.50;99.90
17529;DHT22;8882;53.192;8.184;2023-07-09T12:37:47;32.50;99.90
17529;DHT22;8882;53.192;8.184;2023-07-09T12:40:20;32.40;99.90
17529;DHT22;8882;53.192;8.184;2023-07-09T12:42:46;32.50;99.90
17529;DHT22;8882;53.192;8.184;2023-07-09T12:45:17;32.40;99.90
17529;DHT22;8882;53.192;8.184;2023-07-09T12:47:45;32.30;99.90
17529;DHT22;8882;53.192;8.184;2023-07-09T12:50:32;32.30;99.90
17529;DHT22;8882;53.192;8.184;2023-07-09T12:53:03;32.40;99.90
17529;DHT22;8882;53.192;8.184;2023-07-09T12:55:29;32.40;99.90
17529;DHT22;8882;53.192;8.184;2023-07-09T12:58:02;32.50;99.90
17529;DHT22;8882;53.192;8.184;2023-07-09T13:00:31;32.40;99.90
17529;DHT22;8882;53.192;8.184;2023-07-09T13:02:58;32.40;99.90
17529;DHT22;8882;53.192;8.184;2023-07-09T13:05:26;32.50;99.90
17529;DHT22;8882;53.192;8.184;2023-07-09T13:07:54;32.60;99.90
17529;DHT22;8882;53.192;8.184;2023-07-09T13:10:27;32.70;99.90
17529;DHT22;8882;53.192;8.184;2023-07-09T13:13:00;32.60;99.90
17529;DHT22;8882;53.192;8.184;2023-07-09T13:15:29;32.50;99.90
17529;DHT22;8882;53.192;8.184;2023-07-09T13:18:03;32.60;99.90
17529;DHT22;8882;53.192;8.184;2023-07-09T13:20:30;32.70;99.90
17529;DHT22;8882;53.192;8.184;2023-07-09T13:22:57;32.90;99.90
17529;DHT22;8882;53.192;8.184;2023-07-09T13:25:23;33.00;99.90
17529;DHT22;8882;53.192;8.184;2023-07-09T13:27:49;33.00;99.90
17529;DHT22;8882;53.192;8.184;2023-07-09T13:30:15;32.90;99.90
17529;DHT22;8882;53.192;8.184;2023-07-09T13:32:40;32.90;99.90
17529;DHT22;8882;53.192;8.184;2023-07-09T13:35:14;32.90;99.90
17529;DHT22;8882;53.192;8.184;2023-07-09T13:37:41;33.00;99.90
17529;DHT22;8882;53.192;8.184;2023-07-09T13:40:13;33.00;99.90
17529;DHT22;8882;53.192;8.184;2023-07-09T13:42:39;33.20;99.90
17529;DHT22;8882;53.192;8.184;2023-07-09T13:45:19;33.10;99.90
17529;DHT22;8882;53.192;8.184;2023-07-09T13:47:45;33.00;99.90
17529;DHT22;8882;53.192;8.184;2023-07-09T13:50:11;33.00;99.90
17529;DHT22;8882;53.192;8.184;2023-07-09T13:52:37;32.90;99.90
17529;DHT22;8882;53.192;8.184;2023-07-09T13:55:02;32.90;99.90
17529;DHT22;8882;53.192;8.184;2023-07-09T13:57:28;32.80;99.90
17529;DHT22;8882;53.192;8.184;2023-07-09T13:59:54;32.70;99.90
17529;DHT22;8882;53.192;8.184;2023-07-09T14:02:28;32.70;99.90
17529;DHT22;8882;53.192;8.184;2023-07-09T14:05:01;32.80;99.90
17529;DHT22;8882;53.192;8.184;2023-07-09T14:07:31;32.70;99.90
17529;DHT22;8882;53.192;8.184;2023-07-09T14:09:58;32.60;99.90
17529;DHT22;8882;53.192;8.184;2023-07-09T14:12:25;32.50;99.90
17529;DHT22;8882;53.192;8.184;2023-07-09T14:14:52;32.50;99.90
17529;DHT22;8882;53.192;8.184;2023-07-09T14:17:19;32.50;99.90
17529;DHT22;8882;53.192;8.184;2023-07-09T14:19:44;32.60;99.90
17529;DHT22;8882;53.192;8.184;2023-07-09T14:22:27;32.60;99.90
17529;DHT22;8882;53.192;8.184;2023-07-09T14:24:55;32.60;99.90
17529;DHT22;8882;53.192;8.184;2023-07-09T14:27:20;32.50;99.90
17529;DHT22;8882;53.192;8.184;2023-07-09T14:29:46;32.50;99.90
17529;DHT22;8882;53.192;8.184;2023-07-09T14:32:38;32.50;99.90
17529;DHT22;8882;53.192;8.184;2023-07-09T14:35:11;32.50;99.90
17529;DHT22;8882;53.192;8.184;2023-07-09T14:37:37;32.50;99.90
17529;DHT22;8882;53.192;8.184;2023-07-09T14:40:03;32.40;99.90
17529;DHT22;8882;53.192;8.184;2023-07-09T14:42:30;32.40;99.90
17529;DHT22;8882;53.192;8.184;2023-07-09T14:44:56;32.30;99.90
17529;DHT22;8882;53.192;8.184;2023-07-09T14:47:22;32.30;99.90
17529;DHT22;8882;53.192;8.184;2023-07-09T14:49:48;32.30;99.90
17529;DHT22;8882;53.192;8.184;2023-07-09T14:52:18;32.30;99.90
17529;DHT22;8882;53.192;8.184;2023-07-09T14:54:45;32.30;99.90
17529;DHT22;8882;53.192;8.184;2023-07-09T14:57:24;32.20;99.90
17529;DHT22;8882;53.192;8.184;2023-07-09T14:59:51;32.20;99.90
17529;DHT22;8882;53.192;8.184;2023-07-09T15:02:32;32.20;99.90
17529;DHT22;8882;53.192;8.184;2023-07-09T15:04:59;32.20;99.90
17529;DHT22;8882;53.192;8.184;2023-07-09T15:07:25;32.10;99.90
17529;DHT22;8882;53.192;8.184;2023-07-09T15:09:59;32.10;99.90
17529;DHT22;8882;53.192;8.184;2023-07-09T15:12:27;32.00;99.90
17529;DHT22;8882;53.192;8.184;2023-07-09T15:15:00;32.00;99.90
17529;DHT22;8882;53.192;8.184;2023-07-09T15:17:26;32.00;99.90
17529;DHT22;8882;53.192;8.184;2023-07-09T15:19:51;32.00;99.90
17529;DHT22;8882;53.192;8.184;2023-07-09T15:22:33;31.90;99.90
17529;DHT22;8882;53.192;8.184;2023-07-09T15:24:59;31.90;99.90
17529;DHT22;8882;53.192;8.184;2023-07-09T15:27:25;31.90;99.90
17529;DHT22;8882;53.192;8.184;2023-07-09T15:29:51;31.90;99.90
17529;DHT22;8882;53.192;8.184;2023-07-09T15:32:17;31.90;99.90
17529;DHT22;8882;53.192;8.184;2023-07-09T15:34:42;31.80;99.90
17529;DHT22;8882;53.192;8.184;2023-07-09T15:37:13;31.80;99.90
17529;DHT22;8882;53.192;8.184;2023-07-09T15:39:40;31.80;99.90
17529;DHT22;8882;53.192;8.184;2023-07-09T15:42:14;31.80;99.90
17529;DHT22;8882;53.192;8.184;2023-07-09T15:44:40;31.70;99.90
17529;DHT22;8882;53.192;8.184;2023-07-09T15:47:18;31.60;99.90
17529;DHT22;8882;53.192;8.184;2023-07-09T15:49:45;31.60;99.90
17529;DHT22;8882;53.192;8.184;2023-07-09T15:52:10;31.60;99.90
17529;DHT22;8882;53.192;8.184;2023-07-09T15:54:36;31.50;99.90
17529;DHT22;8882;53.192;8.184;2023-07-09T15:57:02;31.50;99.90
17529;DHT22;8882;53.192;8.184;2023-07-09T15:59:31;31.40;99.90
17529;DHT22;8882;53.192;8.184;2023-07-09T16:01:58;31.30;99.90
17529;DHT22;8882;53.192;8.184;2023-07-09T16:04:24;31.30;99.90
17529;DHT22;8882;53.192;8.184;2023-07-09T16:06:50;31.30;99.90
17529;DHT22;8882;53.192;8.184;2023-07-09T16:09:15;31.20;99.90
17529;DHT22;8882;53.192;8.184;2023-07-09T16:11:47;31.20;99.90
17529;DHT22;8882;53.192;8.184;2023-07-09T16:14:20;31.20;99.90
17529;DHT22;8882;53.192;8.184;2023-07-09T16:16:49;31.20;99.90
17529;DHT22;8882;53.192;8.184;2023-07-09T16:19:17;31.00;99.90
17529;DHT22;8882;53.192;8.184;2023-07-09T16:21:44;31.00;99.90
17529;DHT22;8882;53.192;8.184;2023-07-09T16:24:19;30.90;99.90
17529;DHT22;8882;53.192;8.184;2023-07-09T16:26:46;30.80;99.90
17529;DHT22;8882;53.192;8.184;2023-07-09T16:29:21;30.70;99.90
17529;DHT22;8882;53.192;8.184;2023-07-09T16:31:48;30.60;99.90
17529;DHT22;8882;53.192;8.184;2023-07-09T16:34:14;30.60;99.90
17529;DHT22;8882;53.192;8.184;2023-07-09T16:36:39;30.50;99.90
17529;DHT22;8882;53.192;8.184;2023-07-09T16:41:53;30.40;99.90
17529;DHT22;8882;53.192;8.184;2023-07-09T16:44:19;30.30;99.90
17529;DHT22;8882;53.192;8.184;2023-07-09T16:46:44;30.30;99.90
17529;DHT22;8882;53.192;8.184;2023-07-09T16:49:26;30.20;99.90
17529;DHT22;8882;53.192;8.184;2023-07-09T16:51:53;30.20;99.90
17529;DHT22;8882;53.192;8.184;2023-07-09T16:54:18;30.10;99.90
17529;DHT22;8882;53.192;8.184;2023-07-09T16:56:44;30.10;99.90
17529;DHT22;8882;53.192;8.184;2023-07-09T16:59:09;30.00;99.90
17529;DHT22;8882;53.192;8.184;2023-07-09T17:01:36;29.90;1.00
17529;DHT22;8882;53.192;8.184;2023-07-09T17:04:15;29.80;1.00
17529;DHT22;8882;53.192;8.184;2023-07-09T17:06:43;29.70;1.00
17529;DHT22;8882;53.192;8.184;2023-07-09T17:09:08;29.70;1.00
17529;DHT22;8882;53.192;8.184;2023-07-09T17:11:34;29.60;1.00
17529;DHT22;8882;53.192;8.184;2023-07-09T17:14:00;29.60;1.00
17529;DHT22;8882;53.192;8.184;2023-07-09T17:16:25;29.60;1.00
17529;DHT22;8882;53.192;8.184;2023-07-09T17:18:51;29.50;1.00
17529;DHT22;8882;53.192;8.184;2023-07-09T17:21:16;29.50;1.00
17529;DHT22;8882;53.192;8.184;2023-07-09T17:23:43;29.40;1.00
17529;DHT22;8882;53.192;8.184;2023-07-09T17:26:09;29.40;1.00
17529;DHT22;8882;53.192;8.184;2023-07-09T17:28:34;29.40;1.00
17529;DHT22;8882;53.192;8.184;2023-07-09T17:31:01;29.30;1.00
17529;DHT22;8882;53.192;8.184;2023-07-09T17:33:27;29.30;1.00
17529;DHT22;8882;53.192;8.184;2023-07-09T17:35:55;29.20;1.00
17529;DHT22;8882;53.192;8.184;2023-07-09T17:38:24;29.20;1.00
17529;DHT22;8882;53.192;8.184;2023-07-09T17:40:50;29.10;1.00
17529;DHT22;8882;53.192;8.184;2023-07-09T17:43:23;29.00;1.00
17529;DHT22;8882;53.192;8.184;2023-07-09T17:45:50;29.00;1.00
17529;DHT22;8882;53.192;8.184;2023-07-09T17:48:28;29.00;1.00
17529;DHT22;8882;53.192;8.184;2023-07-09T17:50:54;28.90;1.00
17529;DHT22;8882;53.192;8.184;2023-07-09T17:53:22;28.90;1.00
17529;DHT22;8882;53.192;8.184;2023-07-09T17:55:48;28.90;1.00
17529;DHT22;8882;53.192;8.184;2023-07-09T17:58:24;28.80;1.00
17529;DHT22;8882;53.192;8.184;2023-07-09T18:00:50;28.10;1.00
17529;DHT22;8882;53.192;8.184;2023-07-09T18:03:18;27.00;1.00
17529;DHT22;8882;53.192;8.184;2023-07-09T18:05:43;25.80;1.00
17529;DHT22;8882;53.192;8.184;2023-07-09T18:08:10;24.30;1.00
17529;DHT22;8882;53.192;8.184;2023-07-09T18:10:41;23.70;99.90
17529;DHT22;8882;53.192;8.184;2023-07-09T18:13:11;23.60;99.90
17529;DHT22;8882;53.192;8.184;2023-07-09T18:15:38;23.10;99.90
17529;DHT22;8882;53.192;8.184;2023-07-09T18:18:04;23.20;99.90
17529;DHT22;8882;53.192;8.184;2023-07-09T18:20:31;22.90;99.90
17529;DHT22;8882;53.192;8.184;2023-07-09T18:22:57;22.90;99.90
17529;DHT22;8882;53.192;8.184;2023-07-09T18:25:25;22.80;99.90
17529;DHT22;8882;53.192;8.184;2023-07-09T18:27:53;22.70;99.90
17529;DHT22;8882;53.192;8.184;2023-07-09T18:30:21;22.60;99.90
17529;DHT22;8882;53.192;8.184;2023-07-09T18:32:48;22.50;99.90
17529;DHT22;8882;53.192;8.184;2023-07-09T18:35:28;22.50;99.90
17529;DHT22;8882;53.192;8.184;2023-07-09T18:37:56;22.50;99.90
17529;DHT22;8882;53.192;8.184;2023-07-09T18:40:27;22.20;99.90
17529;DHT22;8882;53.192;8.184;2023-07-09T18:42:54;22.10;99.90
17529;DHT22;8882;53.192;8.184;2023-07-09T18:45:22;22.10;99.90
17529;DHT22;8882;53.192;8.184;2023-07-09T18:47:49;22.00;99.90
17529;DHT22;8882;53.192;8.184;2023-07-09T18:50:28;22.00;99.90
17529;DHT22;8882;53.192;8.184;2023-07-09T18:52:55;22.10;99.90
17529;DHT22;8882;53.192;8.184;2023-07-09T18:55:26;22.10;99.90
17529;DHT22;8882;53.192;8.184;2023-07-09T18:57:53;22.10;99.90
17529;DHT22;8882;53.192;8.184;2023-07-09T19:00:19;21.90;99.90
17529;DHT22;8882;53.192;8.184;2023-07-09T19:02:46;21.80;99.90
17529;DHT22;8882;53.192;8.184;2023-07-09T19:05:23;21.70;99.90
17529;DHT22;8882;53.192;8.184;2023-07-09T19:07:50;21.80;99.90
17529;DHT22;8882;53.192;8.184;2023-07-09T19:10:22;22.00;99.90
17529;DHT22;8882;53.192;8.184;2023-07-09T19:12:50;21.80;99.90
17529;DHT22;8882;53.192;8.184;2023-07-09T19:15:20;21.80;99.90
17529;DHT22;8882;53.192;8.184;2023-07-09T19:17:47;21.80;99.90
17529;DHT22;8882;53.192;8.184;2023-07-09T19:20:24;21.70;99.90
17529;DHT22;8882;53.192;8.184;2023-07-09T19:22:51;21.60;99.90
17529;DHT22;8882;53.192;8.184;2023-07-09T19:25:26;21.60;99.90
17529;DHT22;8882;53.192;8.184;2023-07-09T19:27:52;21.60;99.90
17529;DHT22;8882;53.192;8.184;2023-07-09T19:30:20;21.60;99.90
17529;DHT22;8882;53.192;8.184;2023-07-09T19:33:04;21.40;99.90
17529;DHT22;8882;53.192;8.184;2023-07-09T19:35:30;21.20;99.90
17529;DHT22;8882;53.192;8.184;2023-07-09T19:37:56;21.20;99.90
17529;DHT22;8882;53.192;8.184;2023-07-09T19:40:25;21.20;99.90
17529;DHT22;8882;53.192;8.184;2023-07-09T19:42:53;21.20;99.90
17529;DHT22;8882;53.192;8.184;2023-07-09T19:45:22;21.20;99.90
17529;DHT22;8882;53.192;8.184;2023-07-09T19:47:49;21.20;99.90
17529;DHT22;8882;53.192;8.184;2023-07-09T19:50:25;21.20;99.90
17529;DHT22;8882;53.192;8.184;2023-07-09T19:52:52;21.10;99.90
17529;DHT22;8882;53.192;8.184;2023-07-09T19:55:29;21.00;99.90
17529;DHT22;8882;53.192;8.184;2023-07-09T19:57:59;20.90;99.90
17529;DHT22;8882;53.192;8.184;2023-07-09T20:00:27;20.90;99.90
17529;DHT22;8882;53.192;8.184;2023-07-09T20:02:53;20.90;99.90
17529;DHT22;8882;53.192;8.184;2023-07-09T20:05:23;20.90;99.90
17529;DHT22;8882;53.192;8.184;2023-07-09T20:07:54;21.00;99.90
17529;DHT22;8882;53.192;8.184;2023-07-09T20:10:20;20.90;99.90
17529;DHT22;8882;53.192;8.184;2023-07-09T20:12:50;20.90;99.90
17529;DHT22;8882;53.192;8.184;2023-07-09T20:15:18;20.90;99.90
17529;DHT22;8882;53.192;8.184;2023-07-09T20:17:45;20.90;99.90
17529;DHT22;8882;53.192;8.184;2023-07-09T20:20:12;20.90;99.90
17529;DHT22;8882;53.192;8.184;2023-07-09T20:22:38;21.00;99.90
17529;DHT22;8882;53.192;8.184;2023-07-09T20:25:17;20.90;99.90
17529;DHT22;8882;53.192;8.184;2023-07-09T20:27:42;20.90;99.90
17529;DHT22;8882;53.192;8.184;2023-07-09T20:30:10;20.90;99.90
17529;DHT22;8882;53.192;8.184;2023-07-09T20:32:36;20.80;99.90
17529;DHT22;8882;53.192;8.184;2023-07-09T20:35:21;20.70;99.90
17529;DHT22;8882;53.192;8.184;2023-07-09T20:37:49;20.80;99.90
17529;DHT22;8882;53.192;8.184;2023-07-09T20:40:17;20.80;99.90
17529;DHT22;8882;53.192;8.184;2023-07-09T20:42:43;20.80;99.90
17529;DHT22;8882;53.192;8.184;2023-07-09T20:45:21;20.80;99.90
17529;DHT22;8882;53.192;8.184;2023-07-09T20:47:47;20.80;99.90
17529;DHT22;8882;53.192;8.184;2023-07-09T20:50:16;20.80;99.90
17529;DHT22;8882;53.192;8.184;2023-07-09T20:52:42;20.80;99.90
17529;DHT22;8882;53.192;8.184;2023-07-09T20:55:11;20.80;99.90
17529;DHT22;8882;53.192;8.184;2023-07-09T20:57:37;20.80;99.90
